Utopia, New York
Current Conditions -  °F | °C
As of 9:51 AM on Thursday 30 Oct 2014 (Local Time) from KLGA Reporting Station
Scattered Clouds Scattered Clouds  
Wind Chill: 53°   Ceiling: Unl
Heat Index: 53°   Visibility: 10mi
Dew Point: 40°   Wind: 15mph
Humidity: 61%   Direction: 320°NW
Pressure: 30"   Gusts: NA
Location:  40.7279°N, 73.7922°W
Report Text: KLGA 301351Z 32013KT 10SM SCT070 12/04 A3000 RMK AO2 SLP158 T01170044
Loading
Personal Weather Stations






























Interactive Weather Map
Tropical Storm Tracking
New forecast layout! Learn more

10-Day Weather Forecast

Advertisements
Track Severe Weather on mobile